Flight Track Log - Related Links

Times and Time Zones

All times are in EDT time to prevent confusion due to time zone crossing. See the AFL150 flight status page for this flight to view local times or setup timezone preferences in your user account.

Time Position Orientation Groundspeed Altitude Reporting Facility
EDT Latitude Longitude Course Direction KTS MPH feet Rate Location/Type
Sun 06:26:00 AM 55.9677 36.9755 279° West 275 316 7,200  Level FlightAware ADS-B (UUWV / MOW)
Sun 06:26:25 AM 55.9726 36.9209 279° West 272 313 8,400 2,400 Climbing FlightAware ADS-B (UUWV / MOW)
Sun 06:26:45 AM 55.9748 36.8973 279° West 274 315 9,000 1,915 Climbing FlightAware ADS-B (UUWV / MOW)
Sun 06:27:12 AM 55.9826 36.8090 279° West 282 325 9,900 1,078 Climbing FlightAware ADS-B (UUWV / MOW)
Sun 06:49:56 AM 56.3832 33.1084 279° West 464 534 34,000 893 Climbing FlightAware ADS-B
Sun 06:54:11 AM 56.5490 31.2229 286° West 460 529 34,000  Level FlightAware ADS-B
Sun 06:55:09 AM 56.5957 31.0147 298° West 462 532 34,000  Level FlightAware ADS-B
Sun 06:56:11 AM 56.6677 30.8214 310° West 463 533 34,000  Level FlightAware ADS-B
Sun 06:57:12 AM 56.7488 30.6326 304° West 464 534 34,000  Level FlightAware ADS-B
Sun 06:58:13 AM 56.8241 30.4348 305° West 466 536 34,000  Level FlightAware ADS-B
Sun 06:59:28 AM 56.9133 30.1938 304° West 468 539 34,000  Level FlightAware ADS-B
Sun 07:00:17 AM 56.9734 30.0291 304° West 468 539 34,000  Level FlightAware ADS-B
Sun 07:01:27 AM 57.0535 29.8079 304° West 469 540 34,000  Level FlightAware ADS-B
Sun 07:02:28 AM 57.1279 29.6010 303° West 467 537 34,000  Level FlightAware ADS-B
Sun 07:03:28 AM 57.1752 29.4682 303° West 465 535 34,000  Level FlightAware ADS-B
Sun 07:04:29 AM 57.2704 29.1997 303° West 463 533 34,000  Level FlightAware ADS-B
Sun 07:05:29 AM 57.3410 28.9980 303° West 464 534 34,000  Level FlightAware ADS-B
Sun 07:06:28 AM 57.4091 28.8024 303° West 465 535 34,000  Level FlightAware ADS-B
Sun 07:06:59 AM 57.4387 28.7170 303° West 463 533 34,000  Level FlightAware ADS-B
Sun 07:07:41 AM 57.4938 28.5568 302° West 461 531 34,000  Level FlightAware ADS-B
Sun 07:08:49 AM 57.5252 28.4653 302° West 458 527 34,000  Level FlightAware ADS-B
Sun 07:10:14 AM 57.6661 28.0497 302° West 456 525 34,000  Level FlightAware ADS-B
Sun 07:10:52 AM 57.7070 27.9279 302° West 455 524 34,000  Level FlightAware ADS-B
Sun 07:11:53 AM 57.7762 27.7198 302° West 458 527 34,000  Level FlightAware ADS-B
Sun 07:12:53 AM 57.8410 27.5138 292° West 459 528 34,000  Level FlightAware ADS-B
Sun 07:13:53 AM 57.8815 27.3095 291° West 456 525 34,000  Level FlightAware ADS-B
Sun 07:14:52 AM 57.9288 27.0740 291° West 454 522 34,000  Level FlightAware ADS-B
Sun 07:16:01 AM 57.9798 26.8191 291° West 454 522 34,000  Level FlightAware ADS-B
Sun 07:17:01 AM 58.0216 26.6066 290° West 452 520 34,000  Level FlightAware ADS-B
Sun 07:18:01 AM 58.0659 26.3791 290° West 453 521 34,000  Level FlightAware ADS-B
Sun 07:18:35 AM 58.0883 26.2638 290° West 452 520 34,000  Level FlightAware ADS-B
Sun 07:19:22 AM 58.1238 26.0794 290° West 450 518 34,000  Level FlightAware ADS-B
Sun 07:20:00 AM 58.1512 25.9349 290° West 455 524 34,000  Level FlightAware ADS-B
Sun 07:20:35 AM 58.1748 25.8098 290° West 455 524 34,000 146 Level FlightAware ADS-B
Sun 07:21:22 AM 58.2002 25.6742 289° West 460 529 34,200 488 Climbing FlightAware ADS-B
Sun 07:22:01 AM 58.2360 25.4810 289° West 461 531 34,700 835 Climbing FlightAware ADS-B
Sun 07:22:41 AM 58.2638 25.3301 289° West 460 529 35,300 889 Climbing FlightAware ADS-B
Sun 07:23:22 AM 58.2923 25.1740 289° West 456 525 35,900 538 Climbing FlightAware ADS-B
Sun 07:23:59 AM 58.3175 25.0349 289° West 456 525 36,000 76 Climbing FlightAware ADS-B
Sun 07:24:41 AM 58.3435 24.8904 289° West 453 521 36,000  Level FlightAware ADS-B
Sun 07:25:22 AM 58.3739 24.7197 289° West 455 524 36,000  Level FlightAware ADS-B
Sun 07:26:01 AM 58.4000 24.5730 289° West 453 521 36,000  Level FlightAware ADS-B
Sun 07:26:43 AM 58.4272 24.4167 288° West 450 518 36,000  Level FlightAware ADS-B
Sun 07:27:22 AM 58.4461 24.2899 286° West 450 518 36,000  Level FlightAware ADS-B
Sun 07:28:03 AM 58.4708 24.1229 286° West 449 517 36,000  Level FlightAware ADS-B
Sun 07:28:42 AM 58.4907 23.9897 286° West 450 518 36,000  Level FlightAware ADS-B
Sun 07:29:32 AM 58.4972 23.9465 286° West 449 517 36,000  Level FlightAware ADS-B
Sun 07:32:59 AM 58.6592 22.8216 285° West 446 513 36,000  Level FlightAware ADS-B
Sun 07:33:00 AM 58.6864 23.0179 295° West  Level Estimated
Sun 07:33:29 AM 58.6754 22.7046 285° West 446 513 36,000  Level FlightAware ADS-B
Sun 07:34:12 AM 58.6989 22.5331 285° West 445 512 36,000  Level FlightAware ADS-B
Sun 07:34:45 AM 58.7162 22.4060 285° West 442 509 36,000  Level FlightAware ADS-B
Sun 07:35:00 AM 58.7536 22.3747 295° West  Level Estimated
Sun 07:35:27 AM 58.7379 22.2457 284° West 442 509 36,000  Level FlightAware ADS-B
Sun 07:36:00 AM 58.7544 22.1218 284° West 442 509 36,000  Level FlightAware ADS-B
Sun 07:36:43 AM 58.7754 21.9626 284° West 443 510 36,000  Level FlightAware ADS-B
Sun 07:37:29 AM 58.7991 21.7820 284° West 443 510 36,000  Level FlightAware ADS-B
Sun 07:38:00 AM 58.8102 21.6957 284° West 442 509 36,000  Level FlightAware ADS-B
Sun 07:38:42 AM 58.8127 21.6771 284° West 443 510 36,000  Level FlightAware ADS-B
Sun 07:39:27 AM 58.8337 21.5125 284° West 443 510 36,000  Level FlightAware ADS-B
Sun 07:40:01 AM 58.8506 21.3787 284° West 443 510 36,000  Level FlightAware ADS-B
Sun 07:41:15 AM 58.9178 20.9239 289° West 447 514 36,000  Level FlightAware ADS-B
Sun 07:42:00 AM 58.9482 20.9412 294° West  Level Estimated
Sun 07:42:17 AM 58.9289 20.8602 284° West 444 511 36,000  Level FlightAware ADS-B
Sun 07:42:59 AM 58.9823 20.5357 288° West 441 507 36,000  Level FlightAware ADS-B
Sun 07:43:48 AM 58.9289 20.8602 288° West 441 507 36,000  Level FlightAware ADS-B
Sun 07:44:48 AM 58.9901 20.4877 287° West 438 504 36,000  Level FlightAware ADS-B
Sun 07:45:32 AM 59.0472 20.1323 287° West 435 501 36,000  Level FlightAware ADS-B
Sun 07:46:12 AM 59.0669 20.0075 287° West 436 502 36,000  Level FlightAware ADS-B
Sun 07:46:51 AM 59.0937 19.8370 287° West 436 502 36,000  Level FlightAware ADS-B
Sun 07:47:31 AM 59.1169 19.6878 287° West 437 503 36,000  Level FlightAware ADS-B
Sun 07:48:11 AM 59.1406 19.5345 287° West 439 505 36,000  Level FlightAware ADS-B
Sun 07:48:51 AM 59.1628 19.3895 287° West 439 505 36,000  Level FlightAware ADS-B
Sun 07:49:32 AM 59.1871 19.2295 286° West 441 507 36,000  Level FlightAware ADS-B
Sun 07:50:12 AM 59.2100 19.0770 286° West 442 509 36,000  Level FlightAware ADS-B
Sun 07:50:51 AM 59.2324 18.9262 286° West 443 510 36,000  Level FlightAware ADS-B
Sun 07:51:32 AM 59.2555 18.7691 286° West 443 510 36,000  Level FlightAware ADS-B
Sun 07:52:14 AM 59.2792 18.6072 286° West 442 509 36,000  Level FlightAware ADS-B
Sun 07:52:54 AM 59.3007 18.4587 286° West 440 506 36,000  Level FlightAware ADS-B
Sun 07:53:34 AM 59.3230 18.3031 286° West 440 506 36,000  Level FlightAware ADS-B
Sun 07:54:14 AM 59.3446 18.1511 286° West 441 507 36,000  Level FlightAware ADS-B
Sun 07:55:14 AM 59.3766 17.9218 285° West 441 507 36,000  Level FlightAware ADS-B
Sun 07:55:53 AM 59.3970 17.7749 285° West 441 507 36,000  Level FlightAware ADS-B
Sun 07:56:34 AM 59.4191 17.6144 285° West 439 505 36,000  Level FlightAware ADS-B
Sun 07:57:14 AM 59.4391 17.4669 285° West 440 506 36,000  Level FlightAware ADS-B
Sun 07:57:50 AM 59.4579 17.3283 285° West 441 507 36,000  Level FlightAware ADS-B
Sun 07:58:33 AM 59.4811 17.1530 284° West 443 510 36,000  Level FlightAware ADS-B
Sun 07:59:13 AM 59.5006 17.0038 284° West 443 510 36,000  Level FlightAware ADS-B
Sun 07:59:56 AM 59.5203 16.8530 284° West 441 507 36,000  Level FlightAware ADS-B
Sun 08:00:36 AM 59.5431 16.6783 284° West 442 509 36,000  Level FlightAware ADS-B
Sun 08:01:16 AM 59.5634 16.5189 284° West 443 510 36,000  Level FlightAware ADS-B
Sun 08:01:47 AM 59.5767 16.4198 289° West 448 516 36,000  Level FlightAware ADS-B
Sun 08:02:37 AM 59.6141 16.2097 289° West 451 519 36,000  Level FlightAware ADS-B
Sun 08:03:28 AM 59.6193 16.1798 288° West 453 521 36,000  Level FlightAware ADS-B
Sun 08:04:16 AM 59.6786 15.8230 288° West 453 521 36,000 Level FlightAware ADS-B
Sun 08:06:00 AM 59.7475 15.4188 289° West  Level Estimated
Sun 08:07:00 AM 59.7867 15.1848 288° West  Level Estimated
Sun 08:08:00 AM 59.8254 14.9503 288° West  Level Estimated
Sun 08:09:00 AM 59.8638 14.7153 288° West  Level Estimated
Sun 08:10:00 AM 59.9017 14.4797 288° West  Level Estimated
Sun 08:11:00 AM 59.9392 14.2436 288° West  Level Estimated
Sun 08:12:00 AM 59.9763 14.0069 287° West  Level Estimated
Sun 08:13:00 AM 60.0129 13.7698 287° West  Level Estimated
Sun 08:14:00 AM 60.0491 13.5321 287° West  Level Estimated
Sun 08:15:00 AM 60.0849 13.2938 287° West  Level Estimated
Sun 08:16:00 AM 60.1203 13.0551 287° West  Level Estimated
Sun 08:17:00 AM 60.1552 12.8159 286° West  Level Estimated
Sun 08:18:00 AM 60.1898 12.5761 286° West  Level Estimated
Sun 08:19:00 AM 60.2238 12.3359 286° West  Level Estimated
Sun 08:20:00 AM 60.2575 12.0951 286° West  Level Estimated
Sun 08:21:00 AM 60.2907 11.8539 286° West  Level Estimated
Sun 08:22:00 AM 60.3234 11.6122 285° West  Level Estimated
Sun 08:23:00 AM 60.3557 11.3700 285° West  Level Estimated
Sun 08:24:00 AM 60.3876 11.1273 285° West  Level Estimated
Sun 08:25:00 AM 60.4191 10.8841 285° West  Level Estimated
Sun 08:26:00 AM 60.4501 10.6405 285° West  Level Estimated
Sun 08:27:00 AM 60.4806 10.3964 284° West  Level Estimated
Sun 08:28:00 AM 60.5107 10.1519 284° West  Level Estimated
Sun 08:29:00 AM 60.5404 9.9069 284° West  Level Estimated
Sun 08:30:00 AM 60.5696 9.6614 284° West  Level Estimated
Sun 08:31:00 AM 60.5983 9.4156 284° West  Level Estimated
Sun 08:32:00 AM 60.6266 9.1692 283° West  Level Estimated
Sun 08:33:00 AM 60.6545 8.9225 283° West  Level Estimated
Sun 08:34:00 AM 60.6819 8.6753 283° West  Level Estimated
Sun 08:35:00 AM 60.7088 8.4277 283° West  Level Estimated
Sun 08:36:00 AM 60.7353 8.1797 282° West  Level Estimated
Sun 08:37:00 AM 60.7613 7.9313 282° West  Level Estimated
Sun 08:38:00 AM 60.7869 7.6825 282° West  Level Estimated
Sun 08:39:00 AM 60.8120 7.4333 282° West  Level Estimated
Sun 08:40:00 AM 60.8366 7.1837 282° West  Level Estimated
Sun 08:41:00 AM 60.8608 6.9338 281° West  Level Estimated
Sun 08:42:00 AM 60.8845 6.6834 281° West  Level Estimated
Sun 08:43:00 AM 60.9078 6.4327 281° West  Level Estimated
Sun 08:44:00 AM 60.9305 6.1817 281° West  Level Estimated
Sun 08:45:00 AM 60.9529 5.9302 280° West  Level Estimated
Sun 08:46:00 AM 60.9747 5.6784 280° West  Level Estimated
Sun 08:47:00 AM 60.9961 5.4263 280° West  Level Estimated
Sun 08:48:00 AM 61.0170 5.1739 280° West  Level Estimated
Sun 08:49:00 AM 61.0374 4.9211 280° West  Level Estimated
Sun 08:50:00 AM 61.0574 4.6680 279° West  Level Estimated
Sun 08:51:00 AM 61.0768 4.4146 279° West  Level Estimated
Sun 08:52:00 AM 61.0959 4.1608 279° West  Level Estimated
Sun 08:53:00 AM 61.1144 3.9068 279° West  Level Estimated
Sun 08:54:00 AM 61.1324 3.6525 278° West  Level Estimated
Sun 08:55:00 AM 61.1500 3.3979 278° West  Level Estimated
Sun 08:56:00 AM 61.1671 3.1430 278° West  Level Estimated
Sun 08:57:00 AM 61.1837 2.8878 278° West  Level Estimated
Sun 08:58:00 AM 61.1999 2.6324 278° West  Level Estimated
Sun 08:59:00 AM 61.2155 2.3767 277° West  Level Estimated
Sun 09:00:00 AM 61.2307 2.1207 277° West  Level Estimated
Sun 09:01:00 AM 61.2454 1.8646 277° West  Level Estimated
Sun 09:02:00 AM 61.2596 1.6081 277° West  Level Estimated
Sun 09:03:00 AM 61.2733 1.3515 276° West  Level Estimated
Sun 09:04:00 AM 61.2866 1.0946 276° West  Level Estimated
Sun 09:05:00 AM 61.2993 0.8375 276° West  Level Estimated
Sun 09:06:00 AM 61.3116 0.5803 276° West  Level Estimated
Sun 09:07:00 AM 61.3234 0.3228 276° West  Level Estimated
Sun 09:08:00 AM 61.3347 0.0651 275° West  Level Estimated
Sun 09:09:00 AM 61.3455 -0.1927 275° West  Level Estimated
Sun 09:10:00 AM 61.3558 -0.4508 275° West  Level Estimated
Sun 09:11:00 AM 61.3656 -0.7090 275° West  Level Estimated
Sun 09:12:00 AM 61.3750 -0.9673 274° West  Level Estimated
Sun 09:13:00 AM 61.3838 -1.2258 274° West  Level Estimated
Sun 09:14:00 AM 61.3922 -1.4845 274° West  Level Estimated
Sun 09:15:00 AM 61.4000 -1.7432 274° West  Level Estimated
Sun 09:16:00 AM 61.4074 -2.0022 274° West  Level Estimated
Sun 09:17:00 AM 61.4143 -2.2612 273° West  Level Estimated
Sun 09:18:00 AM 61.4207 -2.5203 273° West  Level Estimated
Sun 09:19:00 AM 61.4266 -2.7795 273° West  Level Estimated
Sun 09:20:00 AM 61.4320 -3.0389 273° West  Level Estimated
Sun 09:21:00 AM 61.4369 -3.2983 272° West  Level Estimated
Sun 09:22:00 AM 61.4413 -3.5578 272° West  Level Estimated
Sun 09:23:00 AM 61.4452 -3.8173 272° West  Level Estimated
Sun 09:24:00 AM 61.4487 -4.0770 272° West  Level Estimated
Sun 09:25:00 AM 61.4516 -4.3366 271° West  Level Estimated
Sun 09:26:00 AM 61.4540 -4.5964 271° West  Level Estimated
Sun 09:27:00 AM 61.4560 -4.8561 271° West  Level Estimated
Sun 09:28:00 AM 61.4574 -5.1159 271° West  Level Estimated
Sun 09:29:00 AM 61.4584 -5.3757 271° West  Level Estimated
Sun 09:30:00 AM 61.4589 -5.6355 270° West  Level Estimated
Sun 09:31:00 AM 61.4588 -5.8953 270° West  Level Estimated
Sun 09:32:00 AM 61.4583 -6.1552 270° West  Level Estimated
Sun 09:33:00 AM 61.4573 -6.4150 270° West  Level Estimated
Sun 09:34:00 AM 61.4558 -6.6747 269° West  Level Estimated
Sun 09:35:00 AM 61.4538 -6.9345 269° West  Level Estimated
Sun 09:36:00 AM 61.4513 -7.1942 269° West  Level Estimated
Sun 09:37:00 AM 61.4483 -7.4539 269° West  Level Estimated
Sun 09:38:00 AM 61.4448 -7.7135 269° West  Level Estimated
Sun 09:39:00 AM 61.4408 -7.9731 268° West  Level Estimated
Sun 09:40:00 AM 61.4363 -8.2325 268° West  Level Estimated
Sun 09:41:00 AM 61.4314 -8.4920 268° West  Level Estimated
Sun 09:42:00 AM 61.4259 -8.7513 268° West  Level Estimated
Sun 09:43:00 AM 61.4199 -9.0105 267° West  Level Estimated
Sun 09:44:00 AM 61.4135 -9.2696 267° West  Level Estimated
Sun 09:45:00 AM 61.4065 -9.5286 267° West  Level Estimated
Sun 09:46:00 AM 61.3991 -9.7875 267° West  Level Estimated
Sun 09:47:00 AM 61.3912 -10.0463 266° West  Level Estimated
Sun 09:48:00 AM 61.3828 -10.3049 266° West  Level Estimated
Sun 09:49:00 AM 61.3739 -10.5634 266° West  Level Estimated
Sun 09:50:00 AM 61.3645 -10.8217 266° West  Level Estimated
Sun 09:51:00 AM 61.3546 -11.0799 266° West  Level Estimated
Sun 09:52:00 AM 61.3442 -11.3379 265° West  Level Estimated
Sun 09:53:00 AM 61.3333 -11.5957 265° West  Level Estimated
Sun 09:54:00 AM 61.3220 -11.8534 265° West  Level Estimated
Sun 09:55:00 AM 61.3102 -12.1108 265° West  Level Estimated
Sun 09:56:00 AM 61.2978 -12.3681 264° West  Level Estimated
Sun 09:57:00 AM 61.2850 -12.6252 264° West  Level Estimated
Sun 09:58:00 AM 61.2717 -12.8820 264° West  Level Estimated
Sun 09:59:00 AM 61.2579 -13.1386 264° West  Level Estimated
Sun 10:00:00 AM 61.2437 -13.3950 264° West  Level Estimated
Sun 10:01:00 AM 61.2289 -13.6512 263° West  Level Estimated
Sun 10:02:00 AM 61.2137 -13.9071 263° West  Level Estimated
Sun 10:03:00 AM 61.1980 -14.1627 263° West  Level Estimated
Sun 10:04:00 AM 61.1818 -14.4181 263° West  Level Estimated
Sun 10:05:00 AM 61.1651 -14.6733 262° West  Level Estimated
Sun 10:06:00 AM 61.1479 -14.9281 262° West  Level Estimated
Sun 10:07:00 AM 61.1303 -15.1827 262° West  Level Estimated
Sun 10:08:00 AM 61.1122 -15.4370 262° West  Level Estimated
Sun 10:09:00 AM 61.0936 -15.6910 261° West  Level Estimated
Sun 10:10:00 AM 61.0746 -15.9447 261° West  Level Estimated
Sun 10:11:00 AM 61.0550 -16.1981 261° West  Level Estimated
Sun 10:12:00 AM 61.0350 -16.4511 261° West  Level Estimated
Sun 10:13:00 AM 61.0145 -16.7039 261° West  Level Estimated
Sun 10:14:00 AM 60.9935 -16.9563 260° West  Level Estimated
Sun 10:15:00 AM 60.9721 -17.2084 260° West  Level Estimated
Sun 10:16:00 AM 60.9502 -17.4601 260° West  Level Estimated
Sun 10:17:00 AM 60.9278 -17.7115 260° West  Level Estimated
Sun 10:18:00 AM 60.9050 -17.9625 260° West  Level Estimated
Sun 10:19:00 AM 60.8817 -18.2132 259° West  Level Estimated
Sun 10:20:00 AM 60.8579 -18.4635 259° West  Level Estimated
Sun 10:21:00 AM 60.8337 -18.7134 259° West  Level Estimated
Sun 10:22:00 AM 60.8090 -18.9629 259° West  Level Estimated
Sun 10:23:00 AM 60.7839 -19.2121 258° West  Level Estimated
Sun 10:24:00 AM 60.7583 -19.4609 258° West  Level Estimated
Sun 10:25:00 AM 60.7322 -19.7092 258° West  Level Estimated
Sun 10:26:00 AM 60.7056 -19.9572 258° West  Level Estimated
Sun 10:27:00 AM 60.6786 -20.2047 258° West  Level Estimated
Sun 10:28:00 AM 60.6512 -20.4518 257° West  Level Estimated
Sun 10:29:00 AM 60.6233 -20.6985 257° West  Level Estimated
Sun 10:30:00 AM 60.5949 -20.9448 257° West  Level Estimated
Sun 10:31:00 AM 60.5661 -21.1906 257° West  Level Estimated
Sun 10:32:00 AM 60.5369 -21.4360 256° West  Level Estimated
Sun 10:33:00 AM 60.5071 -21.6809 256° West  Level Estimated
Sun 10:34:00 AM 60.4770 -21.9254 256° West  Level Estimated
Sun 10:35:00 AM 60.4464 -22.1695 256° West  Level Estimated
Sun 10:36:00 AM 60.4153 -22.4130 256° West  Level Estimated
Sun 10:37:00 AM 60.3839 -22.6561 255° West  Level Estimated
Sun 10:38:00 AM 60.3519 -22.8988 255° West  Level Estimated
Sun 10:39:00 AM 60.3195 -23.1409 255° West  Level Estimated
Sun 10:40:00 AM 60.2867 -23.3826 255° West  Level Estimated
Sun 10:41:00 AM 60.2535 -23.6238 255° West  Level Estimated
Sun 10:42:00 AM 60.2198 -23.8644 254° West  Level Estimated
Sun 10:43:00 AM 60.1857 -24.1046 254° West  Level Estimated
Sun 10:44:00 AM 60.1511 -24.3443 254° West  Level Estimated
Sun 10:45:00 AM 60.1161 -24.5835 254° West  Level Estimated
Sun 10:46:00 AM 60.0807 -24.8222 254° West  Level Estimated
Sun 10:47:00 AM 60.0448 -25.0603 253° West  Level Estimated
Sun 10:48:00 AM 60.0086 -25.2980 253° West  Level Estimated
Sun 10:49:00 AM 59.9719 -25.5351 253° West  Level Estimated
Sun 10:50:00 AM 59.9347 -25.7717 253° West  Level Estimated
Sun 10:51:00 AM 59.8972 -26.0077 252° West  Level Estimated
Sun 10:52:00 AM 59.8592 -26.2432 252° West  Level Estimated
Sun 10:53:00 AM 59.8208 -26.4782 252° West  Level Estimated
Sun 10:54:00 AM 59.7820 -26.7126 252° West  Level Estimated
Sun 10:55:00 AM 59.7428 -26.9465 252° West  Level Estimated
Sun 10:56:00 AM 59.7032 -27.1798 251° West  Level Estimated
Sun 10:57:00 AM 59.6631 -27.4126 251° West  Level Estimated
Sun 10:58:00 AM 59.6227 -27.6448 251° West  Level Estimated
Sun 10:59:00 AM 59.5818 -27.8765 251° West  Level Estimated
Sun 11:00:00 AM 59.5405 -28.1076 251° West  Level Estimated
Sun 11:01:00 AM 59.4988 -28.3381 250° West  Level Estimated
Sun 11:02:00 AM 59.4567 -28.5681 250° West  Level Estimated
Sun 11:03:00 AM 59.4142 -28.7974 250° West  Level Estimated
Sun 11:04:00 AM 59.3713 -29.0263 250° West  Level Estimated
Sun 11:05:00 AM 59.3280 -29.2545 250° West  Level Estimated
Sun 11:06:00 AM 59.2844 -29.4821 249° West  Level Estimated
Sun 11:07:00 AM 59.2403 -29.7092 249° West  Level Estimated
Sun 11:08:00 AM 59.1958 -29.9356 249° West  Level Estimated
Sun 11:09:00 AM 59.1509 -30.1615 249° West  Level Estimated
Sun 11:10:00 AM 59.1057 -30.3868 249° West  Level Estimated
Sun 11:11:00 AM 59.0600 -30.6115 249° West  Level Estimated
Sun 11:12:00 AM 59.0140 -30.8355 248° West  Level Estimated
Sun 11:13:00 AM 58.9675 -31.0590 248° West  Level Estimated
Sun 11:14:00 AM 58.9207 -31.2819 248° West  Level Estimated
Sun 11:15:00 AM 58.8735 -31.5042 248° West  Level Estimated
Sun 11:16:00 AM 58.8259 -31.7258 248° West  Level Estimated
Sun 11:17:00 AM 58.7780 -31.9469 247° West  Level Estimated
Sun 11:18:00 AM 58.7296 -32.1673 247° West  Level Estimated
Sun 11:19:00 AM 58.6810 -32.3871 247° West  Level Estimated
Sun 11:20:00 AM 58.6319 -32.6063 247° West  Level Estimated
Sun 11:21:00 AM 58.5824 -32.8249 247° West  Level Estimated
Sun 11:22:00 AM 58.5326 -33.0429 246° West  Level Estimated
Sun 11:23:00 AM 58.4824 -33.2603 246° West  Level Estimated
Sun 11:24:00 AM 58.4319 -33.4770 246° West  Level Estimated
Sun 11:25:00 AM 58.3809 -33.6931 246° West  Level Estimated
Sun 11:26:00 AM 58.3297 -33.9086 246° West  Level Estimated
Sun 11:27:00 AM 58.2780 -34.1234 246° West  Level Estimated
Sun 11:28:00 AM 58.2260 -34.3377 245° Southwest  Level Estimated
Sun 11:29:00 AM 58.1736 -34.5513 245° Southwest  Level Estimated
Sun 11:30:00 AM 58.1209 -34.7642 245° Southwest  Level Estimated
Sun 11:31:00 AM 58.0678 -34.9766 245° Southwest  Level Estimated
Sun 11:32:00 AM 58.0144 -35.1883 245° Southwest  Level Estimated
Sun 11:33:00 AM 57.9607 -35.3993 244° Southwest  Level Estimated
Sun 11:34:00 AM 57.9065 -35.6098 244° Southwest  Level Estimated
Sun 11:35:00 AM 57.8521 -35.8196 244° Southwest  Level Estimated
Sun 11:36:00 AM 57.7972 -36.0287 244° Southwest  Level Estimated
Sun 11:37:00 AM 57.7421 -36.2373 244° Southwest  Level Estimated
Sun 11:38:00 AM 57.6866 -36.4451 244° Southwest  Level Estimated
Sun 11:39:00 AM 57.6308 -36.6524 243° Southwest  Level Estimated
Sun 11:40:00 AM 57.5746 -36.8590 243° Southwest  Level Estimated
Sun 11:41:00 AM 57.5186 -37.0630 243° Southwest  Level Estimated
Sun 11:42:00 AM 57.4623 -37.2663 243° Southwest  Level Estimated
Sun 11:43:00 AM 57.4057 -37.4691 243° Southwest  Level Estimated
Sun 11:44:00 AM 57.3488 -37.6711 242° Southwest  Level Estimated
Sun 11:45:00 AM 57.2915 -37.8726 242° Southwest  Level Estimated
Sun 11:46:00 AM 57.2339 -38.0734 242° Southwest  Level Estimated
Sun 11:47:00 AM 57.1760 -38.2736 242° Southwest  Level Estimated
Sun 11:48:00 AM 57.1178 -38.4732 242° Southwest  Level Estimated
Sun 11:49:00 AM 57.0593 -38.6722 242° Southwest  Level Estimated
Sun 11:50:00 AM 57.0004 -38.8705 241° Southwest  Level Estimated
Sun 11:51:00 AM 56.9413 -39.0682 241° Southwest  Level Estimated
Sun 11:52:00 AM 56.8818 -39.2652 241° Southwest  Level Estimated
Sun 11:53:00 AM 56.8220 -39.4617 241° Southwest  Level Estimated
Sun 11:54:00 AM 56.7619 -39.6575 241° Southwest  Level Estimated
Sun 11:55:00 AM 56.7015 -39.8527 241° Southwest  Level Estimated
Sun 11:56:00 AM 56.6408 -40.0472 240° Southwest  Level Estimated
Sun 11:57:00 AM 56.5798 -40.2412 240° Southwest  Level Estimated
Sun 11:58:00 AM 56.5185 -40.4345 240° Southwest  Level Estimated
Sun 11:59:00 AM 56.4569 -40.6271 240° Southwest  Level Estimated
Sun 12:00:00 PM 56.3950 -40.8192 240° Southwest  Level Estimated
Sun 12:00:49 PM 64.2333 -48.2500 239° Southwest 450 518 37,000  Level Gander Center
Sun 12:01:00 PM 56.3328 -41.0106 240° Southwest  Level Estimated
Sun 12:01:49 PM 64.2167 -48.5000 261° West 450 518 37,000  Level Gander Center
Sun 12:02:00 PM 56.2704 -41.2014 240° Southwest  Level Estimated
Sun 12:02:49 PM 64.1667 -48.7833 248° West 450 518 37,000  Level Gander Center
Sun 12:03:00 PM 56.2076 -41.3916 239° Southwest  Level Estimated
Sun 12:03:49 PM 64.1333 -49.0667 255° West 450 518 37,000  Level Gander Center
Sun 12:04:00 PM 56.1445 -41.5812 239° Southwest  Level Estimated
Sun 12:04:49 PM 64.1000 -49.3167 253° West 450 518 37,000  Level Gander Center
Sun 12:05:00 PM 56.0811 -41.7701 239° Southwest  Level Estimated
Sun 12:05:49 PM 64.0667 -49.6000 255° West 450 518 37,000  Level Gander Center
Sun 12:06:00 PM 56.0175 -41.9584 239° Southwest  Level Estimated
Sun 12:06:49 PM 64.0333 -49.8333 252° West 450 518 37,000  Level Gander Center
Sun 12:07:49 PM 63.9833 -50.1333 249° West 450 518 37,000  Level Gander Center
Sun 12:08:49 PM 63.9333 -50.4167 248° West 450 518 37,000  Level Gander Center
Sun 12:09:49 PM 63.9000 -50.6500 252° West 450 518 37,000  Level Gander Center
Sun 12:10:27 PM 63.8833 -50.8167 257° West 450 518 37,000  Level Gander Center
Sun 12:11:27 PM 63.8333 -51.0500 244° Southwest 450 518 37,000  Level Gander Center
Sun 12:12:27 PM 63.7833 -51.3333 248° West 450 518 37,000  Level Gander Center
Sun 12:13:27 PM 63.7500 -51.5667 252° West 450 518 37,000  Level Gander Center
Sun 12:14:27 PM 63.7000 -51.8500 248° West 450 518 37,000  Level Gander Center
Sun 12:15:27 PM 63.6500 -52.1000 246° West 450 518 37,000  Level Gander Center
Sun 12:16:27 PM 63.6167 -52.3667 254° West 450 518 37,000  Level Gander Center
Sun 12:17:27 PM 63.5667 -52.6500 248° West 450 518 37,000  Level Gander Center
Sun 12:18:27 PM 63.5333 -52.8833 252° West 450 518 37,000  Level Gander Center
Sun 12:19:27 PM 63.4833 -53.1500 247° West 450 518 37,000  Level Gander Center
Sun 12:20:27 PM 63.4333 -53.4333 249° West 450 518 37,000  Level Gander Center
Sun 12:21:27 PM 63.3667 -53.6667 238° Southwest 450 518 37,000  Level Gander Center
Sun 12:22:27 PM 63.3333 -53.9000 252° West 450 518 37,000  Level Gander Center
Sun 12:23:49 PM 63.2667 -54.2500 247° West 450 518 37,000  Level Gander Center
Sun 12:24:49 PM 63.2167 -54.5167 248° West 450 518 37,000  Level Gander Center
Sun 12:25:27 PM 63.1833 -54.6667 244° Southwest 450 518 37,000  Level Gander Center
Sun 12:26:27 PM 63.1333 -54.9333 248° West 450 518 37,000  Level Gander Center
Sun 12:27:27 PM 63.0833 -55.2000 248° West 450 518 37,000  Level Gander Center
Sun 12:28:27 PM 63.0333 -55.4333 245° Southwest 450 518 37,000  Level Gander Center
Sun 12:29:27 PM 62.9833 -55.7000 248° West 450 518 37,000  Level Gander Center
Sun 12:30:27 PM 62.9167 -55.9333 238° Southwest 450 518 37,000  Level Gander Center
Sun 12:31:27 PM 62.8500 -56.1667 238° Southwest 450 518 37,000  Level Gander Center
Sun 12:32:27 PM 62.7833 -56.3833 236° Southwest 450 518 37,000  Level Gander Center
Sun 12:33:27 PM 62.7333 -56.5833 241° Southwest 450 518 37,000  Level Gander Center
Sun 12:34:27 PM 62.6500 -56.8500 236° Southwest 450 518 37,000  Level Gander Center
Sun 12:35:27 PM 62.6000 -57.0333 239° Southwest 450 518 37,000  Level Gander Center
Sun 12:36:27 PM 62.5167 -57.2667 232° Southwest 450 518 37,000  Level Gander Center
Sun 12:37:40 PM 62.4167 -57.4667 223° Southwest 440 506 37,000  Level Montreal Center
Sun 12:38:40 PM 62.3667 -57.7000 245° Southwest 450 518 37,000  Level Montreal Center
Sun 12:39:40 PM 62.3000 -57.9167 237° Southwest 450 518 37,000  Level Montreal Center
Sun 12:40:27 PM 62.2333 -58.1500 239° Southwest 450 518 37,000  Level Gander Center
Sun 12:41:40 PM 62.1667 -58.3667 237° Southwest 450 518 37,000  Level Montreal Center
Sun 12:42:40 PM 62.0833 -58.5667 228° Southwest 450 518 37,000  Level Montreal Center
Sun 12:43:27 PM 62.0333 -58.8000 246° West 450 518 37,000 -250 Level Gander Center
Sun 12:44:40 PM 61.9500 -59.0000 229° Southwest 450 518 36,500 -451 Descending Montreal Center
Sun 12:45:40 PM 61.8667 -59.2333 233° Southwest 450 518 36,000 -250 Descending Montreal Center
Sun 12:46:40 PM 61.8000 -59.4500 237° Southwest 450 518 36,000  Level Montreal Center
Sun 12:47:40 PM 61.7167 -59.6667 231° Southwest 450 518 36,000  Level Montreal Center
Sun 12:48:40 PM 61.6500 -59.8833 237° Southwest 450 518 36,000  Level Montreal Center
Sun 12:49:40 PM 61.5667 -60.0667 226° Southwest 450 518 36,000  Level Montreal Center
Sun 12:50:40 PM 61.5000 -60.2833 237° Southwest 450 518 36,000  Level Montreal Center
Sun 12:51:40 PM 61.4333 -60.5000 237° Southwest 450 518 36,000  Level Montreal Center
Sun 12:52:40 PM 61.3667 -60.6833 233° Southwest 450 518 36,000  Level Montreal Center
Sun 12:53:40 PM 61.2833 -60.8833 229° Southwest 450 518 36,000  Level Montreal Center
Sun 12:54:40 PM 61.2167 -61.1000 237° Southwest 450 518 36,000  Level Montreal Center
Sun 12:55:40 PM 61.1500 -61.3167 238° Southwest 450 518 36,000  Level Montreal Center
Sun 12:56:40 PM 61.0667 -61.5333 232° Southwest 450 518 36,000  Level Montreal Center
Sun 12:57:40 PM 60.9833 -61.7333 229° Southwest 450 518 36,000  Level Montreal Center
Sun 12:58:40 PM 60.9000 -61.9500 232° Southwest 450 518 36,000  Level Montreal Center
Sun 12:59:40 PM 60.8333 -62.1167 231° Southwest 450 518 36,000  Level Montreal Center
Sun 01:00:27 PM 60.7833 -62.3667 248° West 450 518 36,000  Level Gander Center
Sun 01:01:27 PM 60.7000 -62.5667 230° Southwest 450 518 36,000  Level Gander Center
Sun 01:02:27 PM 60.6167 -62.7667 230° Southwest 450 518 36,000  Level Gander Center
Sun 01:03:27 PM 60.5333 -62.9667 230° Southwest 460 529 36,000  Level Gander Center
Sun 01:04:27 PM 60.4667 -63.1667 236° Southwest 460 529 36,000  Level Gander Center
Sun 01:05:27 PM 60.3833 -63.3667 230° Southwest 450 518 36,000  Level Gander Center
Sun 01:06:27 PM 60.3000 -63.5667 230° Southwest 450 518 36,000  Level Gander Center
Sun 01:07:40 PM 60.2000 -63.7167 217° Southwest 450 518 36,000  Level Montreal Center
Sun 01:08:40 PM 60.1167 -63.9167 230° Southwest 450 518 36,000  Level Montreal Center
Sun 01:09:40 PM 60.0333 -64.1167 230° Southwest 450 518 36,000  Level Montreal Center
Sun 01:10:40 PM 59.9667 -64.3167 236° Southwest 450 518 36,000  Level Montreal Center
Sun 01:11:27 PM 59.9000 -64.5333 239° Southwest 450 518 36,000  Level Gander Center
Sun 01:12:40 PM 59.8000 -64.7000 220° Southwest 450 518 36,000  Level Montreal Center
Sun 01:13:40 PM 59.7333 -64.9000 237° Southwest 450 518 36,000  Level Montreal Center
Sun 01:14:40 PM 59.6500 -65.1000 231° Southwest 450 518 36,000  Level Montreal Center
Sun 01:15:40 PM 59.5500 -65.2500 217° Southwest 450 518 36,000  Level Montreal Center
Sun 01:16:40 PM 59.4667 -65.4167 225° Southwest 450 518 36,000  Level Montreal Center
Sun 01:17:40 PM 59.3667 -65.5833 220° Southwest 440 506 36,000  Level Montreal Center
Sun 01:18:40 PM 59.2667 -65.7000 211° Southwest 440 506 36,000  Level Montreal Center
Sun 01:19:40 PM 59.1833 -65.8667 226° Southwest 440 506 36,000  Level Montreal Center
Sun 01:20:40 PM 59.0667 -66.0333 216° Southwest 440 506 36,000  Level Montreal Center
Sun 01:21:40 PM 58.9833 -66.1500 216° Southwest 440 506 36,000  Level Montreal Center
Sun 01:22:40 PM 58.8833 -66.3167 221° Southwest 450 518 36,000  Level Montreal Center
Sun 01:23:27 PM 58.8000 -66.5000 229° Southwest 450 518 36,000  Level Gander Center
Sun 01:24:40 PM 58.6833 -66.6000 204° Southwest 450 518 36,000  Level Montreal Center
Sun 01:25:40 PM 58.5833 -66.7500 218° Southwest 450 518 36,000  Level Montreal Center
Sun 01:26:40 PM 58.4833 -66.9000 218° Southwest 450 518 36,000  Level Montreal Center
Sun 01:27:40 PM 58.3833 -67.0333 215° Southwest 450 518 36,000  Level Montreal Center
Sun 01:28:40 PM 58.2833 -67.1833 218° Southwest 450 518 36,000  Level Montreal Center
Sun 01:29:40 PM 58.1667 -67.3333 214° Southwest 450 518 36,000  Level Montreal Center
Sun 01:30:40 PM 58.0833 -67.4500 217° Southwest 450 518 36,000  Level Montreal Center
Sun 01:31:40 PM 57.9667 -67.6167 217° Southwest 450 518 36,000  Level Montreal Center
Sun 01:32:40 PM 57.8833 -67.7500 220° Southwest 450 518 36,000  Level Montreal Center
Sun 01:33:40 PM 57.7667 -67.8833 211° Southwest 450 518 36,000  Level Montreal Center
Sun 01:34:40 PM 57.6500 -68.0333 215° Southwest 460 529 36,000  Level Montreal Center
Sun 01:35:40 PM 57.5667 -68.1667 221° Southwest 460 529 36,000  Level Montreal Center
Sun 01:36:40 PM 57.4500 -68.3167 215° Southwest 450 518 36,000  Level Montreal Center
Sun 01:37:40 PM 57.3667 -68.4333 217° Southwest 460 529 36,000  Level Montreal Center
Sun 01:38:40 PM 57.2500 -68.5833 215° Southwest 460 529 36,000  Level Montreal Center
Sun 01:39:40 PM 57.1333 -68.7333 215° Southwest 460 529 36,000  Level Montreal Center
Sun 01:40:40 PM 57.0500 -68.8667 221° Southwest 460 529 36,000  Level Montreal Center
Sun 01:41:40 PM 56.9333 -68.9833 209° Southwest 460 529 36,000  Level Montreal Center
Sun 01:42:40 PM 56.8167 -69.1333 215° Southwest 460 529 36,000  Level Montreal Center
Sun 01:43:40 PM 56.7167 -69.2667 216° Southwest 460 529 36,000  Level Montreal Center
Sun 01:44:40 PM 56.6000 -69.4167 215° Southwest 470 541 36,000  Level Montreal Center
Sun 01:45:40 PM 56.5167 -69.5500 221° Southwest 470 541 36,000  Level Montreal Center
Sun 01:46:40 PM 56.4000 -69.7000 215° Southwest 470 541 36,000  Level Montreal Center
Sun 01:47:40 PM 56.2833 -69.8000 205° Southwest 470 541 36,000  Level Montreal Center
Sun 01:48:40 PM 56.1667 -69.9333 212° Southwest 470 541 36,000  Level Montreal Center
Sun 01:49:40 PM 56.0833 -70.0833 225° Southwest 470 541 36,000  Level Montreal Center
Sun 01:50:40 PM 55.9667 -70.2167 213° Southwest 470 541 36,000  Level Montreal Center
Sun 01:51:40 PM 55.8500 -70.3500 213° Southwest 470 541 36,000  Level Montreal Center
Sun 01:52:40 PM 55.7500 -70.4500 209° Southwest 480 552 36,000  Level Montreal Center
Sun 01:53:27 PM 55.6500 -70.6333 226° Southwest 480 552 36,000  Level Gander Center
Sun 01:54:40 PM 55.5333 -70.7167 202° Southwest 480 552 36,000  Level Montreal Center
Sun 01:55:40 PM 55.4000 -70.8833 215° Southwest 480 552 36,000  Level Montreal Center
Sun 01:56:40 PM 55.3000 -71.0000 214° Southwest 480 552 36,000  Level Montreal Center
Sun 01:57:40 PM 55.1833 -71.1167 210° Southwest 480 552 36,000  Level Montreal Center
Sun 01:58:40 PM 55.0667 -71.2500 213° Southwest 480 552 36,000  Level Montreal Center
Sun 01:59:40 PM 54.9500 -71.3833 213° Southwest 480 552 36,000  Level Montreal Center
Sun 02:00:40 PM 54.8333 -71.5167 213° Southwest 490 564 36,000  Level Montreal Center
Sun 02:01:40 PM 54.7333 -71.6500 218° Southwest 490 564 36,000  Level Montreal Center
Sun 02:02:40 PM 54.6167 -71.7667 210° Southwest 490 564 36,000  Level Montreal Center
Sun 02:03:40 PM 54.4833 -71.9000 210° Southwest 490 564 36,000  Level Montreal Center
Sun 02:04:40 PM 54.3667 -72.0333 214° Southwest 490 564 36,000  Level Montreal Center
Sun 02:05:40 PM 54.2500 -72.1500 210° Southwest 490 564 36,000  Level Montreal Center
Sun 02:06:40 PM 54.1500 -72.2833 218° Southwest 490 564 36,000  Level Montreal Center
Sun 02:07:40 PM 54.0333 -72.4000 210° Southwest 490 564 36,000  Level Montreal Center
Sun 02:08:40 PM 53.9167 -72.5333 214° Southwest 490 564 36,000  Level Montreal Center
Sun 02:09:40 PM 53.8000 -72.6500 211° Southwest 490 564 36,000  Level Montreal Center
Sun 02:10:40 PM 53.6833 -72.7833 214° Southwest 490 564 36,000  Level Montreal Center
Sun 02:11:40 PM 53.5667 -72.9000 211° Southwest 490 564 36,000  Level Montreal Center
Sun 02:12:40 PM 53.4500 -73.0167 211° Southwest 490 564 36,000  Level Montreal Center
Sun 02:13:40 PM 53.3333 -73.1500 214° Southwest 490 564 36,000  Level Montreal Center
Sun 02:14:40 PM 53.2167 -73.2667 211° Southwest 490 564 36,000  Level Montreal Center
Sun 02:15:40 PM 53.1000 -73.3833 211° Southwest 490 564 36,000  Level Montreal Center
Sun 02:16:40 PM 52.9833 -73.5000 211° Southwest 490 564 36,000  Level Montreal Center
Sun 02:17:40 PM 52.8667 -73.6167 211° Southwest 500 575 36,000  Level Montreal Center
Sun 02:18:40 PM 52.7500 -73.7333 211° Southwest 500 575 36,000  Level Montreal Center
Sun 02:19:40 PM 52.6333 -73.8500 211° Southwest 500 575 36,000  Level Montreal Center
Sun 02:20:40 PM 52.5000 -73.9667 208° Southwest 500 575 36,000  Level Montreal Center
Sun 02:21:40 PM 52.3833 -74.0833 211° Southwest 500 575 36,000  Level Montreal Center
Sun 02:22:40 PM 52.2500 -74.2333 215° Southwest 500 575 36,000  Level Montreal Center
Sun 02:23:40 PM 52.1333 -74.3500 212° Southwest 500 575 36,000  Level Montreal Center
Sun 02:24:40 PM 52.0333 -74.4667 216° Southwest 500 575 36,000  Level Montreal Center
Sun 02:25:40 PM 51.9000 -74.5667 205° Southwest 500 575 36,000  Level Montreal Center
Sun 02:26:40 PM 51.7833 -74.6833 212° Southwest 500 575 36,000  Level Montreal Center
Sun 02:27:40 PM 51.6500 -74.8000 209° Southwest 500 575 36,000  Level Montreal Center
Sun 02:28:40 PM 51.5333 -74.9167 212° Southwest 500 575 36,000  Level Montreal Center
Sun 02:29:40 PM 51.4167 -75.0167 208° Southwest 510 587 36,000  Level Montreal Center
Sun 02:30:40 PM 51.3000 -75.1333 212° Southwest 510 587 36,000  Level Montreal Center
Sun 02:31:40 PM 51.1667 -75.2333 205° Southwest 510 587 36,000  Level Montreal Center
Sun 02:32:40 PM 51.0333 -75.3500 209° Southwest 510 587 36,000  Level Montreal Center
Sun 02:33:40 PM 50.9000 -75.4500 205° Southwest 510 587 36,000  Level Montreal Center
Sun 02:34:40 PM 50.7833 -75.5333 204° Southwest 510 587 36,000  Level Montreal Center
Sun 02:35:40 PM 50.6500 -75.6500 209° Southwest 510 587 36,000  Level Montreal Center
Sun 02:36:40 PM 50.5167 -75.7500 206° Southwest 520 598 36,000  Level Montreal Center
Sun 02:37:40 PM 50.4000 -75.8667 213° Southwest 530 610 36,000  Level Montreal Center
Sun 02:38:40 PM 50.2500 -75.9667 203° Southwest 530 610 36,000  Level Montreal Center
Sun 02:39:40 PM 50.1333 -76.0500 205° Southwest 530 610 36,000  Level Montreal Center
Sun 02:40:40 PM 49.9667 -76.1500 201° Southwest 530 610 36,000  Level Montreal Center
Sun 02:41:40 PM 49.8500 -76.2500 209° Southwest 530 610 36,000  Level Montreal Center
Sun 02:42:40 PM 49.7000 -76.3500 203° Southwest 530 610 36,000  Level Montreal Center
Sun 02:43:40 PM 49.5833 -76.4667 213° Southwest 530 610 36,000  Level Montreal Center
Sun 02:44:40 PM 49.4333 -76.5667 203° Southwest 550 633 36,000  Level Montreal Center
Sun 02:45:40 PM 49.3167 -76.6667 209° Southwest 530 610 36,000  Level Montreal Center
Sun 02:46:40 PM 49.1667 -76.7667 204° Southwest 540 621 36,000  Level Montreal Center
Sun 02:47:40 PM 49.0500 -76.8667 209° Southwest 530 610 36,000  Level Montreal Center
Sun 02:48:40 PM 48.9167 -76.9333 198° South 530 610 36,000  Level Montreal Center
Sun 02:49:40 PM 48.7833 -77.0333 206° Southwest 520 598 36,000  Level Montreal Center
Sun 02:50:40 PM 48.6500 -77.1333 206° Southwest 520 598 36,000  Level Montreal Center
Sun 02:51:40 PM 48.5000 -77.2333 204° Southwest 510 587 36,000  Level Montreal Center
Sun 02:52:40 PM 48.3833 -77.3333 210° Southwest 510 587 36,000  Level Montreal Center
Sun 02:53:40 PM 48.2667 -77.4000 201° Southwest 500 575 36,000  Level Montreal Center
Sun 02:54:40 PM 48.1333 -77.5000 207° Southwest 510 587 36,000  Level Montreal Center
Sun 02:55:40 PM 48.0000 -77.6000 207° Southwest 510 587 36,000  Level Montreal Center
Sun 02:56:40 PM 47.8667 -77.7000 207° Southwest 510 587 36,000  Level Montreal Center
Sun 02:57:40 PM 47.7500 -77.7667 201° Southwest 520 598 36,000  Level Montreal Center
Sun 02:58:40 PM 47.6000 -77.8667 204° Southwest 510 587 36,000  Level Montreal Center
Sun 03:05:34 PM 46.7351 -78.4438 205° Southwest 503 579 36,000  Level FlightAware ADS-B (CYYZ)
Sun 03:06:04 PM 46.6753 -78.4828 205° Southwest 503 579 36,000  Level FlightAware ADS-B (CYYZ)
Sun 03:06:35 PM 46.6056 -78.5283 205° Southwest 504 580 36,000  Level FlightAware ADS-B (CYYZ)
Sun 03:07:18 PM 46.5154 -78.5868 205° Southwest 504 580 36,000  Level FlightAware ADS-B (CYYZ)
Sun 03:07:50 PM 46.4464 -78.6316 205° Southwest 504 580 36,000  Level FlightAware ADS-B (CYYZ)
Sun 03:08:20 PM 46.3841 -78.6718 205° Southwest 505 581 36,000  Level FlightAware ADS-B (CYYZ)
Sun 03:08:50 PM 46.3185 -78.7140 205° Southwest 507 583 36,000  Level FlightAware ADS-B (CYYZ)
Sun 03:09:21 PM 46.2515 -78.7571 204° Southwest 507 583 36,000  Level FlightAware ADS-B (CYYZ)
Sun 03:09:51 PM 46.1883 -78.7974 204° Southwest 507 583 36,000  Level FlightAware ADS-B (CYYZ)
Sun 03:10:21 PM 46.1234 -78.8390 204° Southwest 507 583 36,000  Level FlightAware ADS-B (CYYZ)
Sun 03:11:07 PM 46.0278 -78.8998 204° Southwest 508 585 36,000  Level FlightAware ADS-B (CYYZ)
Sun 03:11:36 PM 45.9628 -78.9410 204° Southwest 507 583 36,000  Level FlightAware ADS-B (CYYZ)
Sun 03:12:07 PM 45.8960 -78.9833 204° Southwest 507 583 36,000  Level FlightAware ADS-B (CYYZ)
Sun 03:12:52 PM 45.8014 -79.0431 204° Southwest 506 582 36,000  Level FlightAware ADS-B (CYYZ)
Sun 03:13:22 PM 45.7357 -79.0844 204° Southwest 505 581 36,000  Level FlightAware ADS-B (CYYZ)
Sun 03:13:52 PM 45.6773 -79.1211 204° Southwest 505 581 36,000  Level FlightAware ADS-B (CYYZ)
Sun 03:14:23 PM 45.6049 -79.1665 204° Southwest 505 581 36,000  Level FlightAware ADS-B (CYYZ)
Sun 03:15:08 PM 45.5187 -79.2203 204° Southwest 505 581 36,000  Level FlightAware ADS-B (CYYZ)
Sun 03:15:38 PM 45.4453 -79.2658 204° Southwest 504 580 36,000  Level FlightAware ADS-B (CYYZ)
Sun 03:16:09 PM 45.3797 -79.3065 204° Southwest 503 579 36,000  Level FlightAware ADS-B (CYYZ)
Sun 03:16:38 PM 45.3182 -79.3445 204° Southwest 502 578 36,000  Level FlightAware ADS-B (CYYZ)
Sun 03:17:24 PM 45.2180 -79.4064 204° Southwest 502 578 36,000  Level FlightAware ADS-B (CYYZ)
Sun 03:17:55 PM 45.1575 -79.4437 204° Southwest 502 578 36,000  Level FlightAware ADS-B (CYYZ)
Sun 03:18:25 PM 45.0938 -79.4827 204° Southwest 501 577 36,000  Level FlightAware ADS-B (CYYZ)
Sun 03:18:55 PM 45.0251 -79.5248 204° Southwest 500 575 36,000  Level FlightAware ADS-B (CYYZ)
Sun 03:19:40 PM 44.9288 -79.5835 204° Southwest 498 573 36,000  Level FlightAware ADS-B (CYYZ)
Sun 03:20:10 PM 44.8661 -79.6217 204° Southwest 497 572 36,000  Level FlightAware ADS-B (CYYZ)
Sun 03:20:40 PM 44.8018 -79.6607 204° Southwest 496 571 36,000  Level FlightAware ADS-B (CYYZ)
Sun 03:20:47 PM 44.7955 -79.6645 203° Southwest 497 572 36,000  Level FlightAware ADS-B (EPLB / LUZ)
Sun 03:21:10 PM 44.7406 -79.6976 204° Southwest 496 571 36,000  Level FlightAware ADS-B (CYYZ)
Sun 03:21:30 PM 44.6997 -79.7224 203° Southwest 496 571 36,000  Level FlightAware ADS-B (EPLB / LUZ)
Sun 03:21:41 PM 44.6745 -79.7375 204° Southwest 496 571 36,000  Level FlightAware ADS-B (CYYZ)
Sun 03:22:11 PM 44.6113 -79.7761 205° Southwest 495 570 36,000  Level FlightAware ADS-B (CYYZ)
Sun 03:22:42 PM 44.5487 -79.8211 211° Southwest 491 565 36,000  Level FlightAware ADS-B (CYYZ)
Sun 03:23:03 PM 44.5168 -79.8489 213° Southwest 488 562 36,000  Level FlightAware ADS-B (EPLB / LUZ)
Sun 03:23:21 PM 44.4748 -79.8880 214° Southwest 488 562 36,000  Level FlightAware ADS-B (CYYZ)
Sun 03:23:43 PM 44.4347 -79.9254 214° Southwest 490 564 36,000  Level FlightAware ADS-B (EPLB / LUZ)
Sun 03:23:51 PM 44.4173 -79.9414 214° Southwest 490 564 36,000  Level FlightAware ADS-B (CYYZ)
Sun 03:24:15 PM 44.3759 -79.9790 213° Southwest 491 565 36,000  Level FlightAware ADS-B (EPLB / LUZ)
Sun 03:24:28 PM 44.3487 -80.0035 213° Southwest 492 566 36,000  Level FlightAware ADS-B (CYYZ)
Sun 03:24:55 PM 44.3022 -80.0453 213° Southwest 493 567 36,000  Level FlightAware ADS-B (EPLB / LUZ)
Sun 03:24:58 PM 44.2908 -80.0556 213° Southwest 492 566 36,000  Level FlightAware ADS-B (CYYZ)
Sun 03:25:33 PM 44.2237 -80.1155 213° Southwest 492 566 36,000  Level FlightAware ADS-B (CYHM)
Sun 03:25:43 PM 44.2053 -80.1319 213° Southwest 492 566 36,000  Level FlightAware ADS-B (CYYZ)
Sun 03:26:13 PM 44.1469 -80.1840 213° Southwest 491 565 36,000  Level FlightAware ADS-B (CYYZ)
Sun 03:26:43 PM 44.0899 -80.2347 213° Southwest 490 564 36,000  Level FlightAware ADS-B (CYYZ)
Sun 03:26:58 PM 44.0609 -80.2604 213° Southwest 490 564 36,000  Level FlightAware ADS-B (EPLB / LUZ)
Sun 03:27:13 PM 44.0321 -80.2859 213° Southwest 490 564 36,000  Level FlightAware ADS-B (CYYZ)
Sun 03:27:44 PM 43.9735 -80.3377 213° Southwest 488 562 36,000  Level FlightAware ADS-B (CYYZ)
Sun 03:27:50 PM 43.9633 -80.3467 213° Southwest 490 564 36,000  Level FlightAware ADS-B (EPLB / LUZ)
Sun 03:28:29 PM 43.8872 -80.4138 213° Southwest 489 563 36,000  Level FlightAware ADS-B (CYYZ)
Sun 03:28:31 PM 43.8965 -80.4057 213° Southwest 490 564 36,000  Level FlightAware ADS-B (EPLB / LUZ)
Sun 03:29:03 PM 43.8322 -80.4622 213° Southwest 490 564 36,000  Level FlightAware ADS-B (EPLB / LUZ)
Sun 03:29:14 PM 43.8005 -80.4901 213° Southwest 488 562 36,000  Level FlightAware ADS-B (CYYZ)
Sun 03:29:37 PM 43.7623 -80.5236 213° Southwest 488 562 36,000  Level FlightAware ADS-B (CYHM)
Sun 03:29:59 PM 43.7148 -80.5652 213° Southwest 487 560 36,000  Level FlightAware ADS-B (CYYZ)
Sun 03:30:07 PM 43.7026 -80.5758 212° Southwest 488 562 36,000  Level FlightAware ADS-B (CYKF)
Sun 03:30:30 PM 43.6572 -80.6155 213° Southwest 487 560 36,000  Level FlightAware ADS-B (CYYZ)
Sun 03:30:39 PM 43.6709 -80.6036 212° Southwest 488 562 36,000  Level FlightAware ADS-B (CYHM)
Sun 03:31:15 PM 43.5706 -80.6909 213° Southwest 487 560 36,000  Level FlightAware ADS-B (CYYZ)
Sun 03:31:26 PM 43.5495 -80.7092 212° Southwest 487 560 36,000  Level FlightAware ADS-B (EPLB / LUZ)
Sun 03:31:45 PM 43.5139 -80.7402 213° Southwest 486 559 36,000  Level FlightAware ADS-B (CYYZ)
Sun 03:32:03 PM 43.4782 -80.7711 212° Southwest 485 558 36,000  Level FlightAware ADS-B (EPLB / LUZ)
Sun 03:32:16 PM 43.4579 -80.7887 213° Southwest 484 557 36,000  Level FlightAware ADS-B (CYYZ)
Sun 03:32:46 PM 43.3991 -80.8395 213° Southwest 483 556 36,000  Level FlightAware ADS-B (CYYZ)
Sun 03:33:06 PM 43.4059 -80.8336 212° Southwest 484 557 36,000  Level FlightAware ADS-B (CYKF)
Sun 03:33:16 PM 43.3426 -80.8883 213° Southwest 483 556 36,000  Level FlightAware ADS-B (CYYZ)
Sun 03:33:36 PM 43.3495 -80.8823 212° Southwest 483 556 36,000  Level FlightAware ADS-B (CYHM)
Sun 03:34:01 PM 43.2556 -80.9630 213° Southwest 483 556 36,000  Level FlightAware ADS-B (CYYZ)
Sun 03:34:18 PM 43.2269 -80.9876 212° Southwest 483 556 36,000  Level FlightAware ADS-B (EPLB / LUZ)
Sun 03:34:31 PM 43.1992 -81.0114 213° Southwest 482 555 36,000  Level FlightAware ADS-B (CYYZ)
Sun 03:35:02 PM 43.1415 -81.0608 213° Southwest 482 555 36,000  Level FlightAware ADS-B (CYYZ)
Sun 03:35:11 PM 43.1507 -81.0529 212° Southwest 483 556 36,000  Level FlightAware ADS-B (EPLB / LUZ)
Sun 03:35:50 PM 43.0506 -81.1375 209° Southwest 483 556 36,000  Level FlightAware ADS-B (EPLB / LUZ)
Sun 03:36:22 PM 42.9869 -81.1782 203° Southwest 486 559 36,000  Level FlightAware ADS-B (EPLB / LUZ)
Sun 03:36:47 PM 42.9355 -81.2102 206° Southwest 483 556 36,000  Level FlightAware ADS-B (CYYZ)
Sun 03:37:03 PM 42.9038 -81.2307 206° Southwest 484 557 36,000  Level FlightAware ADS-B (EPLB / LUZ)
Sun 03:37:17 PM 42.8731 -81.2504 206° Southwest 484 557 36,000  Level FlightAware ADS-B (CYYZ)
Sun 03:37:34 PM 42.8488 -81.2657 205° Southwest 485 558 36,000  Level FlightAware ADS-B (EPLB / LUZ)
Sun 03:37:48 PM 42.8110 -81.2893 205° Southwest 484 557 36,000  Level FlightAware ADS-B (CYYZ)
Sun 03:38:11 PM 42.7727 -81.3129 204° Southwest 485 558 36,000  Level FlightAware ADS-B (EPLB / LUZ)
Sun 03:38:16 PM 42.7549 -81.3238 205° Southwest 485 558 36,000  Level FlightAware ADS-B (CYYZ)
Sun 03:38:48 PM 42.6886 -81.3645 205° Southwest 485 558 36,000  Level FlightAware ADS-B (CYYZ)
Sun 03:39:06 PM 42.6942 -81.3611 204° Southwest 486 559 36,000  Level FlightAware ADS-B (EPLB / LUZ)
Sun 03:39:18 PM 42.6432 -81.3923 205° Southwest 486 559 36,000  Level FlightAware ADS-B (CYYZ)
Sun 03:39:49 PM 42.5637 -81.4408 205° Southwest 486 559 36,000  Level FlightAware ADS-B (CYYZ)
Sun 03:39:51 PM 42.5602 -81.4429 204° Southwest 486 559 36,000  Level FlightAware ADS-B (EPLB / LUZ)
Sun 03:40:19 PM 42.5084 -81.4746 205° Southwest 484 557 36,000  Level FlightAware ADS-B (CYYZ)
Sun 03:40:49 PM 42.4403 -81.5159 205° Southwest 484 557 36,000  Level FlightAware ADS-B (CYYZ)
Sun 03:40:58 PM 42.4543 -81.5074 204° Southwest 485 558 36,000  Level FlightAware ADS-B (EPLB / LUZ)
Sun 03:41:35 PM 42.3479 -81.5720 205° Southwest 480 552 36,000  Level FlightAware ADS-B (CYYZ)
Sun 03:42:19 PM 42.2594 -81.6256 205° Southwest 475 547 36,000  Level FlightAware ADS-B (CYYZ)
Sun 03:42:49 PM 42.2017 -81.6605 205° Southwest 474 545 36,000  Level FlightAware ADS-B (CYYZ)
Sun 03:43:20 PM 42.1641 -81.6832 205° Southwest 474 545 36,000  Level FlightAware ADS-B (CYYZ)
Sun 03:44:02 PM 42.0665 -81.7418 205° Southwest 474 545 36,000  Level FlightAware ADS-B (CYYZ)
Sun 03:44:28 PM 42.0320 -81.7626 205° Southwest 473 544 36,000  Level FlightAware ADS-B (CYYZ)
Sun 03:45:05 PM 41.9313 -81.8228 205° Southwest 473 544 36,000  Level FlightAware ADS-B (CYYZ)
Sun 03:45:36 PM 41.8648 -81.8625 205° Southwest 474 545 36,000  Level FlightAware ADS-B (CYYZ)
Sun 03:46:06 PM 41.8290 -81.8839 205° Southwest 474 545 36,000  Level FlightAware ADS-B (CYYZ)
Sun 03:46:36 PM 41.7538 -81.9285 204° Southwest 473 544 36,000  Level FlightAware ADS-B (CYYZ)
Sun 03:46:55 PM 41.7384 -81.9377 204° Southwest 473 544 36,000  Level FlightAware ADS-B (CYYZ)
Sun 03:47:51 PM 41.5969 -82.0215 204° Southwest 472 543 36,000  Level FlightAware ADS-B (CYYZ)
Sun 03:48:37 PM 41.5658 -82.0398 204° Southwest 469 540 36,000  Level FlightAware ADS-B (CYYZ)
Sun 03:49:08 PM 41.4491 -82.1086 204° Southwest 466 536 36,000  Level FlightAware ADS-B (CYYZ)
Sun 03:50:06 PM 41.3258 -82.1722 198° South 469 540 36,000  Level FlightAware ADS-B (CYYZ)
Sun 03:50:59 PM 41.2214 -82.2100 198° South 468 539 36,000  Level Cleveland Center
Sun 03:56:39 PM 40.5033 -82.4656 195° South 467 537 36,000  Level FlightAware ADS-B (EGCN / DSA)
Sun 03:57:31 PM 40.4153 -82.4963 195° South 467 537 36,000  Level FlightAware ADS-B (EGCN / DSA)
Sun 03:58:06 PM 40.3185 -82.5302 195° South 470 541 36,000  Level FlightAware ADS-B (EGCN / DSA)
Sun 03:58:38 PM 40.2526 -82.5531 195° South 471 542 36,000  Level FlightAware ADS-B (EGCN / DSA)
Sun 03:59:08 PM 40.1892 -82.5745 193° South 473 544 36,000  Level FlightAware ADS-B (EGCN / DSA)
Sun 03:59:52 PM 40.0914 -82.5910 184° South 479 551 36,000  Level FlightAware ADS-B (EGCN / DSA)
Sun 04:00:36 PM 39.9975 -82.5978 184° South 475 547 36,000  Level FlightAware ADS-B (EGCN / DSA)
Sun 04:01:21 PM 39.8995 -82.6053 183° South 469 540 36,000  Level FlightAware ADS-B
Sun 04:02:01 PM 39.8161 -82.6110 183° South 462 532 36,000  Level FlightAware ADS-B (EGCN / DSA)
Sun 04:02:32 PM 39.7456 -82.6157 183° South 461 531 36,000  Level FlightAware ADS-B (EGCN / DSA)
Sun 04:03:12 PM 39.6600 -82.6215 183° South 460 529 36,000  Level FlightAware ADS-B (EGCN / DSA)
Sun 04:03:44 PM 39.5931 -82.6260 183° South 459 528 36,000  Level FlightAware ADS-B (EGCN / DSA)
Sun 04:04:16 PM 39.5263 -82.6306 183° South 458 527 36,000  Level FlightAware ADS-B (EGCN / DSA)
Sun 04:05:00 PM 39.4338 -82.6368 183° South 459 528 36,000  Level FlightAware ADS-B (EGCN / DSA)
Sun 04:05:37 PM 39.3537 -82.6422 183° South 462 532 36,000  Level FlightAware ADS-B (EGCN / DSA)
Sun 04:06:16 PM 39.2757 -82.6473 183° South 464 534 36,000  Level FlightAware ADS-B
Sun 04:06:53 PM 39.1894 -82.6531 183° South 465 535 36,000  Level FlightAware ADS-B (EGCN / DSA)
Sun 04:07:41 PM 39.0908 -82.6596 183° South 466 536 36,000  Level FlightAware ADS-B
Sun 04:08:21 PM 39.0016 -82.6656 183° South 468 539 36,000  Level FlightAware ADS-B
Sun 04:08:53 PM 38.9314 -82.6702 183° South 469 540 36,000  Level FlightAware ADS-B
Sun 04:09:34 PM 38.8440 -82.6759 183° South 470 541 36,000  Level FlightAware ADS-B
Sun 04:10:06 PM 38.7742 -82.6805 183° South 469 540 36,000  Level FlightAware ADS-B
Sun 04:10:47 PM 38.6857 -82.6863 183° South 467 537 36,000  Level FlightAware ADS-B
Sun 04:11:32 PM 38.5924 -82.6924 183° South 463 533 36,000  Level FlightAware ADS-B
Sun 04:12:38 PM 38.4831 -82.6995 183° South 462 532 36,000  Level FlightAware ADS-B
Sun 04:14:06 PM 38.2675 -82.7136 183° South 461 531 36,000  Level Indianapolis Center
Sun 04:15:08 PM 38.1383 -82.7211 183° South 461 531 36,000  Level Indianapolis Center
Sun 04:16:10 PM 38.0106 -82.7297 183° South 461 531 36,000  Level Indianapolis Center
Sun 04:17:12 PM 37.8847 -82.7389 183° South 458 527 36,000  Level Indianapolis Center
Sun 04:18:14 PM 37.7572 -82.7469 183° South 456 525 36,000  Level Indianapolis Center
Sun 04:19:16 PM 37.6194 -82.7911 194° South 444 511 36,000  Level Indianapolis Center
Sun 04:20:19 PM 37.5108 -82.8608 207° Southwest 439 505 36,000  Level Indianapolis Center
Sun 04:21:21 PM 37.4042 -82.9322 208° Southwest 439 505 36,000  Level Indianapolis Center
Sun 04:22:23 PM 37.2972 -83.0031 208° Southwest 438 504 36,000  Level Indianapolis Center
Sun 04:23:25 PM 37.1906 -83.0736 208° Southwest 438 504 36,000  Level Indianapolis Center
Sun 04:24:27 PM 37.0650 -83.1556 208° Southwest 438 504 36,000  Level Indianapolis Center
Sun 04:25:29 PM 36.9575 -83.2250 207° Southwest 438 504 36,000  Level Indianapolis Center
Sun 04:26:31 PM 36.8492 -83.2947 207° Southwest 438 504 36,000  Level Indianapolis Center
Sun 04:27:33 PM 36.7414 -83.3625 207° Southwest 438 504 36,000  Level Indianapolis Center
Sun 04:28:36 PM 36.6156 -83.4431 207° Southwest 438 504 36,000  Level Indianapolis Center
Sun 04:29:38 PM 36.5089 -83.5117 207° Southwest 435 501 36,000  Level Indianapolis Center
Sun 04:30:40 PM 36.4008 -83.5794 207° Southwest 435 501 36,000  Level Indianapolis Center
Sun 04:31:42 PM 36.2925 -83.6500 208° Southwest 435 501 36,000  Level Indianapolis Center
Sun 04:32:44 PM 36.1811 -83.7189 207° Southwest 440 506 36,000  Level Indianapolis Center
Sun 04:33:46 PM 36.0519 -83.8011 207° Southwest 445 512 36,000  Level Indianapolis Center
Sun 04:39:17 PM 35.3705 -84.0244 191° South 458 527 36,000  Level FlightAware ADS-B (KDZJ)
Sun 04:39:56 PM 35.2900 -84.0437 191° South 460 529 36,000  Level FlightAware ADS-B (KDZJ)
Sun 04:40:28 PM 35.2232 -84.0598 191° South 461 531 36,000  Level FlightAware ADS-B (KDZJ)
Sun 04:41:17 PM 35.1211 -84.0843 191° South 463 533 36,000  Level FlightAware ADS-B (KDZJ)
Sun 04:41:53 PM 35.0437 -84.1029 191° South 458 527 36,000  Level FlightAware ADS-B (KDZJ)
Sun 04:42:38 PM 34.9478 -84.1257 191° South 459 528 36,000  Level FlightAware ADS-B (KDZJ)
Sun 04:43:12 PM 34.8757 -84.1429 191° South 461 531 36,000  Level FlightAware ADS-B (KDZJ)
Sun 04:43:54 PM 34.7859 -84.1643 191° South 472 543 36,000  Level FlightAware ADS-B (KDZJ)
Sun 04:44:58 PM 34.6555 -84.2176 206° Southwest 468 539 36,000  Level FlightAware ADS-B (KDZJ)
Sun 04:45:35 PM 34.5838 -84.2588 206° Southwest 461 531 36,000  Level FlightAware ADS-B (KDZJ)
Sun 04:46:18 PM 34.4991 -84.3075 206° Southwest 468 539 36,000  Level FlightAware ADS-B (KDZJ)
Sun 04:46:58 PM 34.4234 -84.3515 206° Southwest 467 537 36,000  Level FlightAware ADS-B (KDZJ)
Sun 04:47:38 PM 34.3430 -84.3984 206° Southwest 467 537 36,000  Level FlightAware ADS-B (KDZJ)
Sun 04:48:18 PM 34.2673 -84.4429 206° Southwest 469 540 36,000  Level FlightAware ADS-B (KDZJ)
Sun 04:48:57 PM 34.1892 -84.4888 206° Southwest 468 539 36,000  Level FlightAware ADS-B (KDZJ)
Sun 04:49:38 PM 34.1077 -84.5301 194° South 469 540 36,000  Level FlightAware ADS-B (KDZJ)
Sun 04:50:18 PM 34.0235 -84.5492 190° South 470 541 36,000  Level FlightAware ADS-B (KDZJ)
Sun 04:50:56 PM 33.9426 -84.5667 191° South 462 532 36,000  Level FlightAware ADS-B (KDZJ)
Sun 04:51:34 PM 33.8601 -84.5753 176° South 470 541 36,000  Level FlightAware ADS-B (KDZJ)
Sun 04:52:22 PM 33.7552 -84.5655 184° South 467 537 36,000  Level FlightAware ADS-B (KDZJ)
Sun 04:53:07 PM 33.6719 -84.6006 184° South 474 545 36,000  Level Atlanta Center
Sun 04:54:07 PM 33.5589 -84.6769 209° Southwest 458 527 36,000  Level Atlanta Center
Sun 04:55:07 PM 33.4417 -84.7183 196° South 452 520 36,000 -250 Level Atlanta Center
Sun 04:56:07 PM 33.3314 -84.6406 149° Southeast 433 498 35,500 -500 Descending Atlanta Center
Sun 04:57:07 PM 33.2358 -84.5331 137° Southeast 420 483 35,000 -250 Descending Atlanta Center
Sun 04:58:07 PM 33.1361 -84.4358 141° Southeast 447 514 35,000  Level Atlanta Center
Sun 04:59:07 PM 33.0278 -84.3511 147° Southeast 457 526 35,000  Level Atlanta Center
Sun 05:00:07 PM 32.9111 -84.2864 155° Southeast 457 526 35,000  Level Atlanta Center
Sun 05:01:07 PM 32.7922 -84.2342 160° South 462 532 35,000  Level Atlanta Center
Sun 05:02:07 PM 32.6775 -84.2042 168° South 467 537 35,000  Level Atlanta Center
Sun 05:03:07 PM 32.5417 -84.2014 179° South 477 549 35,000  Level Atlanta Center
Sun 05:04:07 PM 32.4081 -84.2136 184° South 477 549 35,000  Level Atlanta Center
Sun 05:05:07 PM 32.2744 -84.2281 185° South 477 549 35,000  Level Atlanta Center
Sun 05:06:07 PM 32.1450 -84.2400 184° South 477 549 35,000  Level Atlanta Center
Sun 05:07:27 PM 31.9672 -84.2542 184° South 464 534 35,000  Level Jacksonville Center
Sun 05:13:23 PM 31.6057 -84.3239 194° South 465 535 35,000  Level FlightAware ADS-B (KONZ)
Sun 05:16:23 PM 30.8201 -84.1392 169° South 465 535 35,000  Level FlightAware ADS-B (KONZ)
Sun 05:18:19 PM 30.5765 -84.0552 158° South 470 541 35,000  Level FlightAware ADS-B
Sun 05:18:49 PM 30.5231 -84.0269 155° Southeast 473 544 35,000  Level FlightAware ADS-B (KONZ)
Sun 05:19:27 PM 30.4407 -83.9833 155° Southeast 473 544 35,000  Level FlightAware ADS-B (KONZ)
Sun 05:20:09 PM 30.3589 -83.9403 155° Southeast 472 543 35,000  Level FlightAware ADS-B (KONZ)
Sun 05:20:47 PM 30.2872 -83.9025 155° Southeast 474 545 35,000  Level FlightAware ADS-B (KONZ)
Sun 05:21:26 PM 30.2042 -83.8589 156° South 475 547 35,000  Level FlightAware ADS-B (KONZ)
Sun 05:22:06 PM 30.1297 -83.8198 155° Southeast 472 543 35,000  Level FlightAware ADS-B (KONZ)
Sun 05:22:45 PM 30.0503 -83.7783 156° South 471 542 35,000  Level FlightAware ADS-B (KONZ)
Sun 05:23:20 PM 29.9774 -83.7402 156° South 474 545 35,000  Level FlightAware ADS-B (KONZ)
Sun 05:23:54 PM 29.9453 -83.7236 156° South 474 545 35,000  Level FlightAware ADS-B (KONZ)
Sun 05:24:27 PM 29.8633 -83.6831 156° South 474 545 35,000  Level Jacksonville Center
Sun 05:25:27 PM 29.7403 -83.6197 156° South 479 551 35,000  Level Jacksonville Center
Sun 05:26:27 PM 29.6197 -83.5592 156° South 479 551 35,000  Level Jacksonville Center
Sun 05:27:27 PM 29.4886 -83.4889 155° Southeast 479 551 35,000  Level Jacksonville Center
Sun 05:28:27 PM 29.3719 -83.4311 157° South 474 545 35,000  Level Jacksonville Center
Sun 05:29:27 PM 29.2531 -83.3686 155° Southeast 474 545 35,000  Level Jacksonville Center
Sun 05:30:27 PM 29.1364 -83.3086 156° South 469 540 35,000  Level Jacksonville Center
Sun 05:31:27 PM 29.0197 -83.2464 155° Southeast 464 534 35,000  Level Jacksonville Center
Sun 05:32:27 PM 28.9050 -83.1892 156° South 459 528 35,000  Level Jacksonville Center
Sun 05:38:13 PM 28.2273 -82.8444 156° South 460 529 35,000  Level FlightAware ADS-B
Sun 05:39:15 PM 28.1062 -82.7836 156° South 459 528 35,000  Level FlightAware ADS-B
Sun 05:39:46 PM 28.0479 -82.7544 156° South 458 527 35,000  Level FlightAware ADS-B
Sun 05:40:24 PM 27.9487 -82.7047 156° South 457 526 35,000  Level FlightAware ADS-B (KEYW)
Sun 05:40:40 PM 27.9416 -82.7012 156° South 458 527 35,000  Level FlightAware ADS-B
Sun 05:41:44 PM 27.8228 -82.6282 149° Southeast 460 529 35,000  Level FlightAware ADS-B
Sun 05:42:16 PM 27.7679 -82.5910 149° Southeast 458 527 35,000  Level FlightAware ADS-B
Sun 05:43:12 PM 27.6635 -82.5212 149° Southeast 451 519 35,000  Level FlightAware ADS-B
Sun 05:43:52 PM 27.5932 -82.4850 168° South 446 513 35,000  Level FlightAware ADS-B
Sun 05:44:30 PM 27.4821 -82.4594 168° South 448 516 35,000  Level FlightAware ADS-B (KEYW)
Sun 05:44:53 PM 27.4517 -82.4522 168° South 448 516 35,000  Level FlightAware ADS-B (KEYW)
Sun 05:45:46 PM 27.3323 -82.4241 168° South 448 516 35,000  Level FlightAware ADS-B (KEYW)
Sun 05:46:15 PM 27.2968 -82.4157 168° South 441 507 35,000  Level FlightAware ADS-B (KPGD)
Sun 05:46:26 PM 27.2473 -82.4042 168° South 448 516 35,000  Level FlightAware ADS-B (KEYW)
Sun 05:47:02 PM 27.1743 -82.3871 168° South 449 517 35,000  Level FlightAware ADS-B (KEYW)
Sun 05:47:32 PM 27.1400 -82.3791 168° South 442 509 35,000  Level FlightAware ADS-B (KPGD)
Sun 05:47:40 PM 27.1034 -82.3706 168° South 449 517 35,000  Level FlightAware ADS-B (KEYW)
Sun 05:48:32 PM 27.0184 -82.3508 168° South 447 514 35,000  Level FlightAware ADS-B (KPGD)
Sun 05:49:33 PM 26.8945 -82.3219 168° South 443 510 35,000  Level FlightAware ADS-B (KPGD)
Sun 05:50:03 PM 26.8054 -82.3012 168° South 448 516 35,000  Level FlightAware ADS-B (KEYW)
Sun 05:50:32 PM 26.7738 -82.2939 168° South 441 507 35,000  Level FlightAware ADS-B (KPGD)
Sun 05:50:48 PM 26.7124 -82.2797 168° South 451 519 35,000  Level FlightAware ADS-B (KEYW)
Sun 05:51:18 PM 26.6516 -82.2656 168° South 450 518 35,000  Level FlightAware ADS-B (KEYW)
Sun 05:51:48 PM 26.5889 -82.2511 168° South 450 518 35,000  Level FlightAware ADS-B (KEYW)
Sun 05:52:19 PM 26.5265 -82.2366 168° South 449 517 35,000  Level FlightAware ADS-B (KEYW)
Sun 05:52:57 PM 26.4774 -82.2253 168° South 449 517 35,000  Level FlightAware ADS-B
Sun 05:53:02 PM 26.4387 -82.2164 168° South 450 518 35,000  Level FlightAware ADS-B (KEYW)
Sun 05:53:36 PM 26.4002 -82.2075 168° South 451 519 35,000  Level FlightAware ADS-B
Sun 05:54:17 PM 26.3150 -82.1878 168° South 448 516 35,000  Level FlightAware ADS-B
Sun 05:54:34 PM 26.2501 -82.1729 168° South 446 513 35,000  Level FlightAware ADS-B (KEYW)
Sun 05:54:56 PM 26.2362 -82.1697 168° South 446 513 35,000  Level FlightAware ADS-B
Sun 05:55:05 PM 26.1887 -82.1587 168° South 446 513 35,000  Level FlightAware ADS-B (KEYW)
Sun 05:55:36 PM 26.1546 -82.1508 168° South 446 513 35,000  Level FlightAware ADS-B
Sun 05:55:50 PM 26.0972 -82.1376 168° South 447 514 35,000  Level FlightAware ADS-B (KEYW)
Sun 05:56:17 PM 26.0716 -82.1318 168° South 447 514 35,000  Level FlightAware ADS-B
Sun 05:56:20 PM 26.0365 -82.1237 168° South 448 516 35,000  Level FlightAware ADS-B (KEYW)
Sun 05:56:57 PM 25.9905 -82.1132 168° South 449 517 35,000  Level FlightAware ADS-B
Sun 05:57:36 PM 25.9099 -82.0947 168° South 450 518 35,000  Level FlightAware ADS-B
Sun 05:58:16 PM 25.8293 -82.0762 168° South 450 518 35,000  Level FlightAware ADS-B
Sun 05:58:36 PM 25.7582 -82.0599 168° South 451 519 35,000  Level FlightAware ADS-B (KEYW)
Sun 05:59:06 PM 25.6966 -82.0459 168° South 451 519 35,000  Level FlightAware ADS-B (KEYW)
Sun 05:59:36 PM 25.6374 -82.0324 168° South 451 519 35,000  Level FlightAware ADS-B (KEYW)
Sun 05:59:58 PM 25.6187 -82.0291 171° South 451 519 35,000  Level FlightAware ADS-B
Sun 06:00:22 PM 25.5415 -82.0410 197° South 451 519 35,000  Level FlightAware ADS-B (KEYW)
Sun 06:00:52 PM 25.4803 -82.0606 197° South 452 520 35,000  Level FlightAware ADS-B (KEYW)
Sun 06:01:22 PM 25.4201 -82.0796 196° South 452 520 35,000  Level FlightAware ADS-B (KEYW)
Sun 06:01:52 PM 25.3589 -82.0988 196° South 452 520 35,000  Level FlightAware ADS-B (KEYW)
Sun 06:02:23 PM 25.2977 -82.1180 196° South 453 521 35,000  Level FlightAware ADS-B (KEYW)
Sun 06:02:51 PM 25.2395 -82.1362 196° South 453 521 35,000  Level FlightAware ADS-B (KEYW)
Sun 06:03:23 PM 25.1749 -82.1564 196° South 452 520 35,000  Level FlightAware ADS-B (KEYW)
Sun 06:03:53 PM 25.1146 -82.1752 196° South 452 520 35,000 -553 Level FlightAware ADS-B (KEYW)
Sun 06:04:39 PM 25.0226 -82.2039 196° South 455 524 34,300 -947 Descending FlightAware ADS-B (KEYW)
Sun 06:05:09 PM 24.9620 -82.2228 196° South 456 525 33,800 -1,000 Descending FlightAware ADS-B (KEYW)
Sun 06:05:39 PM 24.9006 -82.2418 196° South 452 520 33,300 -1,082 Descending FlightAware ADS-B (KEYW)
Sun 06:06:10 PM 24.8389 -82.2610 196° South 449 517 32,700 -1,026 Descending FlightAware ADS-B (KEYW)
Sun 06:06:55 PM 24.7489 -82.2888 196° South 439 505 32,000 -960 Descending FlightAware ADS-B (KEYW)
Sun 06:07:25 PM 24.6903 -82.3069 196° South 436 502 31,500 -1,000 Descending FlightAware ADS-B (KEYW)
Sun 06:07:55 PM 24.6320 -82.3249 196° South 432 497 31,000 -1,017 Descending FlightAware ADS-B (KEYW)
Sun 06:08:24 PM 24.5770 -82.3418 196° South 430 495 30,500 -1,105 Descending FlightAware ADS-B (KEYW)
Sun 06:09:11 PM 24.4864 -82.3697 196° South 426 490 29,600 -1,558 Descending FlightAware ADS-B (KEYW)
Sun 06:09:41 PM 24.4295 -82.3873 196° South 422 486 28,500 -2,300 Descending FlightAware ADS-B (KEYW)
Sun 06:10:11 PM 24.3726 -82.4047 196° South 423 487 27,300 -2,600 Descending FlightAware ADS-B (KEYW)
Sun 06:10:41 PM 24.3180 -82.4214 196° South 428 493 25,900 -2,447 Descending FlightAware ADS-B (KEYW)
Sun 06:11:27 PM 24.2292 -82.4487 196° South 419 482 24,200 -2,289 Descending FlightAware ADS-B (KEYW)
Sun 06:11:57 PM 24.1730 -82.4658 196° South 420 483 23,000 -1,600 Descending FlightAware ADS-B (KEYW)
Sun 06:12:42 PM 24.0900 -82.4912 196° South 394 453 22,200 -800 Descending FlightAware ADS-B (KEYW)
Sun 06:13:12 PM 24.0390 -82.5068 196° South 370 426 22,000 -689 Descending FlightAware ADS-B (KEYW)
Sun 06:13:43 PM 23.9875 -82.5194 190° South 381 438 21,500 -2,459 Descending FlightAware ADS-B (KEYW)
Sun 06:14:13 PM 23.9327 -82.5254 185° South 401 461 19,500 -4,700 Descending FlightAware ADS-B (KEYW)
Sun 06:14:43 PM 23.8748 -82.5312 186° South 410 472 16,800 -4,300 Descending FlightAware ADS-B (KEYW)
Sun 06:15:13 PM 23.8218 -82.5366 186° South 390 449 15,200 -3,158 Descending FlightAware ADS-B (KEYW)
Sun 06:15:59 PM 23.7388 -82.5451 186° South 387 445 12,800 -2,514 Descending FlightAware ADS-B (KEYW)
Sun 06:16:27 PM 23.6893 -82.5500 186° South 377 434 12,100 -1,900 Descending FlightAware ADS-B (KEYW)
Sun 06:16:59 PM 23.6320 -82.5557 186° South 374 430 10,900 -1,923 Descending FlightAware ADS-B (KEYW)
Sun 06:17:45 PM 23.5546 -82.5635 186° South 361 415 9,600 -1,703 Descending FlightAware ADS-B (KEYW)
Sun 06:18:13 PM 23.5093 -82.5679 186° South 355 409 8,800 -2,133 Descending FlightAware ADS-B (KEYW)
Sun 06:18:30 PM 23.4795 -82.5709 186° South 359 413 8,000 -2,298 Descending FlightAware ADS-B (KEYW)
Sun 06:19:00 PM 23.4297 -82.5758 186° South 357 411 7,000 -1,180 Descending FlightAware ADS-B (KEYW)
Sun 06:19:31 PM 23.3811 -82.5807 186° South 333 383 6,800 -492 Descending FlightAware ADS-B (KEYW)
Sun 06:20:01 PM 23.3379 -82.5850 186° South 312 359 6,500 -492 Descending FlightAware ADS-B (KEYW)
Sun 06:20:32 PM 23.2942 -82.5893 186° South 293 337 6,300 -609 Descending FlightAware ADS-B (KEYW)
Sun 06:21:10 PM 23.2439 -82.5943 186° South 282 325 5,800 -1,040 Descending FlightAware ADS-B (KEYW)
Sun 06:21:47 PM 23.1951 -82.5990 186° South 282 325 5,000 -1,254 Descending FlightAware ADS-B (KEYW)
Sun 06:22:17 PM 23.1564 -82.6031 187° South 278 320 4,400 -1,149 Descending FlightAware ADS-B (KEYW)
Sun 06:22:34 PM 23.1349 -82.6058 187° South 275 316 4,100 -1,059 Descending FlightAware ADS-B (KEYW)
Sun 06:25:00 PM 22.9891 -82.4091 129° Southeast  Level Estimated
Sun 06:26:00 PM 22.9891 -82.4091 180° South  Level Estimated
Sun 06:27:00 PM 22.9891 -82.4091 180° South  Level Estimated
Sun 06:28:00 PM 22.9891 -82.4091 180° South  Level Estimated
Sun 06:29:00 PM 22.9891 -82.4091 180° South  Level Estimated
Sun 06:30:00 PM 22.9891 -82.4091 180° South  Level Estimated
Sun 06:31:00 PM 22.9891 -82.4091 180° South  Level Estimated
Sun 06:32:00 PM 22.9891 -82.4091 180° South  Level Estimated
Sun 06:33:00 PM 22.9891 -82.4091 180° South  Level Estimated
Sun 06:34:00 PM 22.9891 -82.4091 180° South  Level Estimated
Sun 06:35:00 PM 22.9891 -82.4091 180° South  Level Estimated
Sun 06:36:00 PM 22.9891 -82.4091 180° South  Level Estimated
Sun 06:37:00 PM 22.9891 -82.4091 180° South  Level Estimated
Sun 06:38:00 PM 22.9891 -82.4091 180° South  Level Estimated
Sun 06:39:00 PM 22.9891 -82.4091 180° South  Level Estimated
Sun 06:40:00 PM 22.9891 -82.4091 180° South  Level Estimated
Sun 06:41:00 PM 22.9891 -82.4091 180° South  Level Estimated
Sun 06:42:00 PM 22.9891 -82.4091 180° South  Level Estimated
Sun 06:43:00 PM 22.9891 -82.4091 180° South  Level Estimated
Sun 06:44:00 PM 22.9891 -82.4091 180° South  Level Estimated

Login

Don't have an account? Register now (free) for customized features, flight alerts, and more!